sensor_id;sensor_type;location;lat;lon;timestamp;temperature;humidity
78886;DHT22;68269;52.514;5.722;2023-04-06T00:02:08;6.40;51.70
78886;DHT22;68269;52.514;5.722;2023-04-06T00:04:37;6.40;51.80
78886;DHT22;68269;52.514;5.722;2023-04-06T00:07:07;6.40;51.70
78886;DHT22;68269;52.514;5.722;2023-04-06T00:09:36;6.40;51.80
78886;DHT22;68269;52.514;5.722;2023-04-06T00:12:06;6.30;51.80
78886;DHT22;68269;52.514;5.722;2023-04-06T00:14:35;6.30;51.80
78886;DHT22;68269;52.514;5.722;2023-04-06T00:17:07;6.20;51.90
78886;DHT22;68269;52.514;5.722;2023-04-06T00:19:37;6.20;51.90
78886;DHT22;68269;52.514;5.722;2023-04-06T00:22:07;6.10;51.90
78886;DHT22;68269;52.514;5.722;2023-04-06T00:24:36;6.10;51.90
78886;DHT22;68269;52.514;5.722;2023-04-06T00:27:05;6.10;52.00
78886;DHT22;68269;52.514;5.722;2023-04-06T00:29:35;6.00;52.00
78886;DHT22;68269;52.514;5.722;2023-04-06T00:32:05;6.00;52.00
78886;DHT22;68269;52.514;5.722;2023-04-06T00:34:37;6.00;52.00
78886;DHT22;68269;52.514;5.722;2023-04-06T00:37:06;5.90;52.10
78886;DHT22;68269;52.514;5.722;2023-04-06T00:39:36;5.90;52.10
78886;DHT22;68269;52.514;5.722;2023-04-06T00:42:10;5.90;52.10
78886;DHT22;68269;52.514;5.722;2023-04-06T00:44:40;5.90;52.10
78886;DHT22;68269;52.514;5.722;2023-04-06T00:47:10;5.80;52.10
78886;DHT22;68269;52.514;5.722;2023-04-06T00:49:42;5.80;52.20
78886;DHT22;68269;52.514;5.722;2023-04-06T00:52:11;5.70;52.20
78886;DHT22;68269;52.514;5.722;2023-04-06T00:54:42;5.70;52.20
78886;DHT22;68269;52.514;5.722;2023-04-06T00:57:12;5.70;52.20
78886;DHT22;68269;52.514;5.722;2023-04-06T00:59:44;5.70;52.20
78886;DHT22;68269;52.514;5.722;2023-04-06T01:02:14;5.70;52.20
78886;DHT22;68269;52.514;5.722;2023-04-06T01:04:51;5.60;52.20
78886;DHT22;68269;52.514;5.722;2023-04-06T01:07:38;5.60;52.30
78886;DHT22;68269;52.514;5.722;2023-04-06T01:10:22;5.60;52.30
78886;DHT22;68269;52.514;5.722;2023-04-06T01:12:56;5.50;52.30
78886;DHT22;68269;52.514;5.722;2023-04-06T01:15:44;5.50;52.30
78886;DHT22;68269;52.514;5.722;2023-04-06T01:18:26;5.50;52.30
78886;DHT22;68269;52.514;5.722;2023-04-06T01:21:11;5.50;52.30
78886;DHT22;68269;52.514;5.722;2023-04-06T01:23:53;5.50;52.30
78886;DHT22;68269;52.514;5.722;2023-04-06T01:26:30;5.50;52.30
78886;DHT22;68269;52.514;5.722;2023-04-06T01:29:02;5.40;52.30
78886;DHT22;68269;52.514;5.722;2023-04-06T01:31:32;5.40;52.30
78886;DHT22;68269;52.514;5.722;2023-04-06T01:34:01;5.40;52.40
78886;DHT22;68269;52.514;5.722;2023-04-06T01:36:31;5.40;52.40
78886;DHT22;68269;52.514;5.722;2023-04-06T01:39:21;5.40;52.40
78886;DHT22;68269;52.514;5.722;2023-04-06T01:41:51;5.40;52.50
78886;DHT22;68269;52.514;5.722;2023-04-06T01:44:21;5.40;52.40
78886;DHT22;68269;52.514;5.722;2023-04-06T01:47:02;5.30;52.40
78886;DHT22;68269;52.514;5.722;2023-04-06T01:49:32;5.40;52.40
78886;DHT22;68269;52.514;5.722;2023-04-06T01:52:03;5.30;52.50
78886;DHT22;68269;52.514;5.722;2023-04-06T01:54:36;5.30;52.40
78886;DHT22;68269;52.514;5.722;2023-04-06T01:57:15;5.30;52.50
78886;DHT22;68269;52.514;5.722;2023-04-06T01:59:49;5.30;52.50
78886;DHT22;68269;52.514;5.722;2023-04-06T02:02:24;5.30;52.50
78886;DHT22;68269;52.514;5.722;2023-04-06T02:05:01;5.30;52.50
78886;DHT22;68269;52.514;5.722;2023-04-06T02:07:30;5.30;52.50
78886;DHT22;68269;52.514;5.722;2023-04-06T02:10:04;5.30;52.50
78886;DHT22;68269;52.514;5.722;2023-04-06T02:12:37;5.30;52.50
78886;DHT22;68269;52.514;5.722;2023-04-06T02:15:10;5.40;52.50
78886;DHT22;68269;52.514;5.722;2023-04-06T02:17:40;5.40;52.50
78886;DHT22;68269;52.514;5.722;2023-04-06T02:20:10;5.40;52.50
78886;DHT22;68269;52.514;5.722;2023-04-06T02:22:39;5.40;52.50
78886;DHT22;68269;52.514;5.722;2023-04-06T02:25:11;5.30;52.50
78886;DHT22;68269;52.514;5.722;2023-04-06T02:27:41;5.40;52.50
78886;DHT22;68269;52.514;5.722;2023-04-06T02:30:11;5.30;52.60
78886;DHT22;68269;52.514;5.722;2023-04-06T02:32:40;5.30;52.60
78886;DHT22;68269;52.514;5.722;2023-04-06T02:35:10;5.30;52.70
78886;DHT22;68269;52.514;5.722;2023-04-06T02:37:40;5.30;52.60
78886;DHT22;68269;52.514;5.722;2023-04-06T02:40:14;5.30;52.70
78886;DHT22;68269;52.514;5.722;2023-04-06T02:42:44;5.30;52.80
78886;DHT22;68269;52.514;5.722;2023-04-06T02:45:15;5.30;52.70
78886;DHT22;68269;52.514;5.722;2023-04-06T02:47:47;5.30;52.70
78886;DHT22;68269;52.514;5.722;2023-04-06T02:50:17;5.20;52.80
78886;DHT22;68269;52.514;5.722;2023-04-06T02:52:54;5.20;52.80
78886;DHT22;68269;52.514;5.722;2023-04-06T02:55:26;5.20;52.80
78886;DHT22;68269;52.514;5.722;2023-04-06T02:57:56;5.20;52.80
78886;DHT22;68269;52.514;5.722;2023-04-06T03:00:31;5.10;52.80
78886;DHT22;68269;52.514;5.722;2023-04-06T03:03:01;5.10;52.80
78886;DHT22;68269;52.514;5.722;2023-04-06T03:05:30;5.10;52.80
78886;DHT22;68269;52.514;5.722;2023-04-06T03:08:00;5.10;52.80
78886;DHT22;68269;52.514;5.722;2023-04-06T03:10:41;5.10;52.90
78886;DHT22;68269;52.514;5.722;2023-04-06T03:13:10;5.10;52.90
78886;DHT22;68269;52.514;5.722;2023-04-06T03:15:45;5.10;52.90
78886;DHT22;68269;52.514;5.722;2023-04-06T03:18:20;5.10;52.90
78886;DHT22;68269;52.514;5.722;2023-04-06T03:20:51;5.00;52.90
78886;DHT22;68269;52.514;5.722;2023-04-06T03:23:23;5.00;52.90
78886;DHT22;68269;52.514;5.722;2023-04-06T03:26:01;5.00;53.00
78886;DHT22;68269;52.514;5.722;2023-04-06T03:28:30;5.00;53.00
78886;DHT22;68269;52.514;5.722;2023-04-06T03:31:03;5.00;53.00
78886;DHT22;68269;52.514;5.722;2023-04-06T03:34:04;5.00;53.00
78886;DHT22;68269;52.514;5.722;2023-04-06T03:36:36;5.00;53.00
78886;DHT22;68269;52.514;5.722;2023-04-06T03:39:05;5.00;53.00
78886;DHT22;68269;52.514;5.722;2023-04-06T03:41:41;5.00;53.00
78886;DHT22;68269;52.514;5.722;2023-04-06T03:44:27;5.00;53.00
78886;DHT22;68269;52.514;5.722;2023-04-06T03:46:56;5.00;53.10
78886;DHT22;68269;52.514;5.722;2023-04-06T03:49:26;5.00;53.00
78886;DHT22;68269;52.514;5.722;2023-04-06T03:51:57;5.00;53.10
78886;DHT22;68269;52.514;5.722;2023-04-06T03:54:26;5.00;53.10
78886;DHT22;68269;52.514;5.722;2023-04-06T03:56:58;5.00;53.10
78886;DHT22;68269;52.514;5.722;2023-04-06T03:59:28;5.00;53.10
78886;DHT22;68269;52.514;5.722;2023-04-06T04:01:57;5.00;53.10
78886;DHT22;68269;52.514;5.722;2023-04-06T04:04:26;5.00;53.10
78886;DHT22;68269;52.514;5.722;2023-04-06T04:06:56;5.00;53.10
78886;DHT22;68269;52.514;5.722;2023-04-06T04:09:26;5.00;53.20
78886;DHT22;68269;52.514;5.722;2023-04-06T04:11:58;5.00;53.20
78886;DHT22;68269;52.514;5.722;2023-04-06T04:14:28;5.10;53.20
78886;DHT22;68269;52.514;5.722;2023-04-06T04:16:57;5.00;53.20
78886;DHT22;68269;52.514;5.722;2023-04-06T04:19:26;5.10;53.20
78886;DHT22;68269;52.514;5.722;2023-04-06T04:21:57;5.10;53.30
78886;DHT22;68269;52.514;5.722;2023-04-06T04:24:32;5.10;53.20
78886;DHT22;68269;52.514;5.722;2023-04-06T04:27:05;5.10;53.30
78886;DHT22;68269;52.514;5.722;2023-04-06T04:29:34;5.10;53.30
78886;DHT22;68269;52.514;5.722;2023-04-06T04:32:08;5.10;53.30
78886;DHT22;68269;52.514;5.722;2023-04-06T04:34:37;5.10;53.20
78886;DHT22;68269;52.514;5.722;2023-04-06T04:37:11;5.10;53.30
78886;DHT22;68269;52.514;5.722;2023-04-06T04:39:51;5.10;53.30
78886;DHT22;68269;52.514;5.722;2023-04-06T04:42:23;5.20;53.30
78886;DHT22;68269;52.514;5.722;2023-04-06T04:44:56;5.20;53.30
78886;DHT22;68269;52.514;5.722;2023-04-06T04:47:36;5.20;53.30
78886;DHT22;68269;52.514;5.722;2023-04-06T04:50:08;5.20;53.30
78886;DHT22;68269;52.514;5.722;2023-04-06T04:52:40;5.20;53.30
78886;DHT22;68269;52.514;5.722;2023-04-06T04:55:30;5.20;53.40
78886;DHT22;68269;52.514;5.722;2023-04-06T04:58:03;5.30;53.40
78886;DHT22;68269;52.514;5.722;2023-04-06T05:00:48;5.30;53.40
78886;DHT22;68269;52.514;5.722;2023-04-06T05:03:21;5.30;53.50
78886;DHT22;68269;52.514;5.722;2023-04-06T05:06:06;5.30;53.40
78886;DHT22;68269;52.514;5.722;2023-04-06T05:08:40;5.30;53.40
78886;DHT22;68269;52.514;5.722;2023-04-06T05:11:10;5.30;53.40
78886;DHT22;68269;52.514;5.722;2023-04-06T05:13:47;5.30;53.40
78886;DHT22;68269;52.514;5.722;2023-04-06T05:16:21;5.30;53.50
78886;DHT22;68269;52.514;5.722;2023-04-06T05:18:51;5.30;53.50
78886;DHT22;68269;52.514;5.722;2023-04-06T05:21:24;5.30;53.50
78886;DHT22;68269;52.514;5.722;2023-04-06T05:24:01;5.30;53.50
78886;DHT22;68269;52.514;5.722;2023-04-06T05:26:32;5.30;53.40
78886;DHT22;68269;52.514;5.722;2023-04-06T05:29:10;5.30;53.40
78886;DHT22;68269;52.514;5.722;2023-04-06T05:31:40;5.40;53.40
78886;DHT22;68269;52.514;5.722;2023-04-06T05:34:10;5.40;53.50
78886;DHT22;68269;52.514;5.722;2023-04-06T05:36:39;5.50;53.40
78886;DHT22;68269;52.514;5.722;2023-04-06T05:39:17;5.50;53.50
78886;DHT22;68269;52.514;5.722;2023-04-06T05:41:51;5.50;53.50
78886;DHT22;68269;52.514;5.722;2023-04-06T05:44:50;5.50;53.50
78886;DHT22;68269;52.514;5.722;2023-04-06T05:47:20;5.50;53.50
78886;DHT22;68269;52.514;5.722;2023-04-06T05:49:57;5.60;53.50
78886;DHT22;68269;52.514;5.722;2023-04-06T05:52:33;5.60;53.50
78886;DHT22;68269;52.514;5.722;2023-04-06T05:55:04;5.60;53.50
78886;DHT22;68269;52.514;5.722;2023-04-06T05:57:33;5.70;53.50
78886;DHT22;68269;52.514;5.722;2023-04-06T06:00:08;5.70;53.50
78886;DHT22;68269;52.514;5.722;2023-04-06T06:02:45;5.70;53.50
78886;DHT22;68269;52.514;5.722;2023-04-06T06:05:18;5.80;53.50
78886;DHT22;68269;52.514;5.722;2023-04-06T06:07:48;5.80;53.50
78886;DHT22;68269;52.514;5.722;2023-04-06T06:10:18;5.80;53.50
78886;DHT22;68269;52.514;5.722;2023-04-06T06:12:48;5.90;53.50
78886;DHT22;68269;52.514;5.722;2023-04-06T06:15:20;5.90;53.50
78886;DHT22;68269;52.514;5.722;2023-04-06T06:17:49;5.90;53.50
78886;DHT22;68269;52.514;5.722;2023-04-06T06:20:19;6.00;53.50
78886;DHT22;68269;52.514;5.722;2023-04-06T06:22:48;6.10;53.60
78886;DHT22;68269;52.514;5.722;2023-04-06T06:25:20;6.10;53.50
78886;DHT22;68269;52.514;5.722;2023-04-06T06:27:51;6.20;53.50
78886;DHT22;68269;52.514;5.722;2023-04-06T06:30:23;6.30;53.50
78886;DHT22;68269;52.514;5.722;2023-04-06T06:32:52;6.30;53.60
78886;DHT22;68269;52.514;5.722;2023-04-06T06:35:22;6.40;53.60
78886;DHT22;68269;52.514;5.722;2023-04-06T06:37:52;6.40;53.60
78886;DHT22;68269;52.514;5.722;2023-04-06T06:40:24;6.50;53.60
78886;DHT22;68269;52.514;5.722;2023-04-06T06:42:55;6.60;53.70
78886;DHT22;68269;52.514;5.722;2023-04-06T06:45:35;6.60;53.60
78886;DHT22;68269;52.514;5.722;2023-04-06T06:48:05;6.60;53.70
78886;DHT22;68269;52.514;5.722;2023-04-06T06:50:34;6.70;53.70
78886;DHT22;68269;52.514;5.722;2023-04-06T06:53:05;6.70;53.70
78886;DHT22;68269;52.514;5.722;2023-04-06T06:55:34;6.80;53.70
78886;DHT22;68269;52.514;5.722;2023-04-06T06:58:03;6.90;53.70
78886;DHT22;68269;52.514;5.722;2023-04-06T07:00:35;7.00;53.70
78886;DHT22;68269;52.514;5.722;2023-04-06T07:03:05;7.00;53.70
78886;DHT22;68269;52.514;5.722;2023-04-06T07:05:34;7.20;53.70
78886;DHT22;68269;52.514;5.722;2023-04-06T07:08:04;7.20;53.70
78886;DHT22;68269;52.514;5.722;2023-04-06T07:10:33;7.30;53.70
78886;DHT22;68269;52.514;5.722;2023-04-06T07:13:03;7.40;53.70
78886;DHT22;68269;52.514;5.722;2023-04-06T07:15:35;7.50;53.70
78886;DHT22;68269;52.514;5.722;2023-04-06T07:18:05;7.60;53.70
78886;DHT22;68269;52.514;5.722;2023-04-06T07:20:34;7.60;53.70
78886;DHT22;68269;52.514;5.722;2023-04-06T07:23:04;7.70;53.70
78886;DHT22;68269;52.514;5.722;2023-04-06T07:25:33;7.80;53.70
78886;DHT22;68269;52.514;5.722;2023-04-06T07:28:03;7.80;53.70
78886;DHT22;68269;52.514;5.722;2023-04-06T07:30:36;7.80;53.70
78886;DHT22;68269;52.514;5.722;2023-04-06T07:33:06;7.90;53.70
78886;DHT22;68269;52.514;5.722;2023-04-06T07:35:37;8.00;53.70
78886;DHT22;68269;52.514;5.722;2023-04-06T07:38:07;8.00;53.70
78886;DHT22;68269;52.514;5.722;2023-04-06T07:40:36;8.10;53.80
78886;DHT22;68269;52.514;5.722;2023-04-06T07:43:06;8.10;53.70
78886;DHT22;68269;52.514;5.722;2023-04-06T07:45:38;8.20;53.70
78886;DHT22;68269;52.514;5.722;2023-04-06T07:48:08;8.20;53.70
78886;DHT22;68269;52.514;5.722;2023-04-06T07:50:38;8.30;53.70
78886;DHT22;68269;52.514;5.722;2023-04-06T07:53:08;8.30;53.70
78886;DHT22;68269;52.514;5.722;2023-04-06T07:55:38;8.40;53.70
78886;DHT22;68269;52.514;5.722;2023-04-06T07:58:08;8.50;53.70
78886;DHT22;68269;52.514;5.722;2023-04-06T08:00:40;8.50;53.70
78886;DHT22;68269;52.514;5.722;2023-04-06T08:03:09;8.60;53.70
78886;DHT22;68269;52.514;5.722;2023-04-06T08:05:38;8.60;53.60
78886;DHT22;68269;52.514;5.722;2023-04-06T08:08:08;8.60;53.70
78886;DHT22;68269;52.514;5.722;2023-04-06T08:10:37;8.70;53.70
78886;DHT22;68269;52.514;5.722;2023-04-06T08:13:07;8.80;53.70
78886;DHT22;68269;52.514;5.722;2023-04-06T08:15:39;8.80;53.70
78886;DHT22;68269;52.514;5.722;2023-04-06T08:18:08;8.90;53.70
78886;DHT22;68269;52.514;5.722;2023-04-06T08:20:38;8.90;53.70
78886;DHT22;68269;52.514;5.722;2023-04-06T08:23:07;8.90;53.70
78886;DHT22;68269;52.514;5.722;2023-04-06T08:25:37;9.00;53.70
78886;DHT22;68269;52.514;5.722;2023-04-06T08:28:06;9.00;53.60
78886;DHT22;68269;52.514;5.722;2023-04-06T08:30:39;9.00;53.60
78886;DHT22;68269;52.514;5.722;2023-04-06T08:33:09;9.00;53.60
78886;DHT22;68269;52.514;5.722;2023-04-06T08:35:38;9.10;53.60
78886;DHT22;68269;52.514;5.722;2023-04-06T08:38:08;9.20;53.60
78886;DHT22;68269;52.514;5.722;2023-04-06T08:40:37;9.20;53.60
78886;DHT22;68269;52.514;5.722;2023-04-06T08:43:09;9.20;53.70
78886;DHT22;68269;52.514;5.722;2023-04-06T08:45:44;9.20;53.60
78886;DHT22;68269;52.514;5.722;2023-04-06T08:48:14;9.20;53.60
78886;DHT22;68269;52.514;5.722;2023-04-06T08:50:44;9.30;53.50
78886;DHT22;68269;52.514;5.722;2023-04-06T08:53:14;9.40;53.50
78886;DHT22;68269;52.514;5.722;2023-04-06T08:55:44;9.40;53.40
78886;DHT22;68269;52.514;5.722;2023-04-06T08:58:14;9.40;53.40
78886;DHT22;68269;52.514;5.722;2023-04-06T09:00:47;9.50;53.30
78886;DHT22;68269;52.514;5.722;2023-04-06T09:03:18;9.50;53.30
78886;DHT22;68269;52.514;5.722;2023-04-06T09:05:48;9.60;53.30
78886;DHT22;68269;52.514;5.722;2023-04-06T09:08:18;9.60;53.20
78886;DHT22;68269;52.514;5.722;2023-04-06T09:10:48;9.70;53.10
78886;DHT22;68269;52.514;5.722;2023-04-06T09:13:18;9.80;53.10
78886;DHT22;68269;52.514;5.722;2023-04-06T09:15:58;9.90;53.10
78886;DHT22;68269;52.514;5.722;2023-04-06T09:18:31;10.00;53.00
78886;DHT22;68269;52.514;5.722;2023-04-06T09:21:01;10.00;52.90
78886;DHT22;68269;52.514;5.722;2023-04-06T09:23:32;10.10;52.90
78886;DHT22;68269;52.514;5.722;2023-04-06T09:26:09;10.20;52.90
78886;DHT22;68269;52.514;5.722;2023-04-06T09:28:45;10.20;52.80
78886;DHT22;68269;52.514;5.722;2023-04-06T09:31:22;10.30;52.80
78886;DHT22;68269;52.514;5.722;2023-04-06T09:33:52;10.30;52.80
78886;DHT22;68269;52.514;5.722;2023-04-06T09:36:30;10.30;52.80
78886;DHT22;68269;52.514;5.722;2023-04-06T09:39:01;10.40;52.80
78886;DHT22;68269;52.514;5.722;2023-04-06T09:41:32;10.40;52.80
78886;DHT22;68269;52.514;5.722;2023-04-06T09:44:03;10.50;52.80
78886;DHT22;68269;52.514;5.722;2023-04-06T09:46:36;10.50;52.80
78886;DHT22;68269;52.514;5.722;2023-04-06T09:49:07;10.60;52.80
78886;DHT22;68269;52.514;5.722;2023-04-06T09:51:39;10.60;52.80
78886;DHT22;68269;52.514;5.722;2023-04-06T09:54:09;10.60;52.80
78886;DHT22;68269;52.514;5.722;2023-04-06T09:56:46;10.60;52.80
78886;DHT22;68269;52.514;5.722;2023-04-06T09:59:20;10.70;52.70
78886;DHT22;68269;52.514;5.722;2023-04-06T10:01:56;10.70;52.70
78886;DHT22;68269;52.514;5.722;2023-04-06T10:04:32;10.80;52.80
78886;DHT22;68269;52.514;5.722;2023-04-06T10:07:04;10.90;52.70
78886;DHT22;68269;52.514;5.722;2023-04-06T10:09:37;10.90;52.70
78886;DHT22;68269;52.514;5.722;2023-04-06T10:12:07;11.00;52.70
78886;DHT22;68269;52.514;5.722;2023-04-06T10:14:37;11.00;52.70
78886;DHT22;68269;52.514;5.722;2023-04-06T10:17:10;11.10;52.60
78886;DHT22;68269;52.514;5.722;2023-04-06T10:19:46;11.10;52.60
78886;DHT22;68269;52.514;5.722;2023-04-06T10:22:22;11.10;52.60
78886;DHT22;68269;52.514;5.722;2023-04-06T10:24:53;11.10;52.60
78886;DHT22;68269;52.514;5.722;2023-04-06T10:27:29;11.10;52.60
78886;DHT22;68269;52.514;5.722;2023-04-06T10:30:02;11.10;52.70
78886;DHT22;68269;52.514;5.722;2023-04-06T10:32:36;11.10;52.60
78886;DHT22;68269;52.514;5.722;2023-04-06T10:35:07;11.10;52.60
78886;DHT22;68269;52.514;5.722;2023-04-06T10:37:49;11.10;52.60
78886;DHT22;68269;52.514;5.722;2023-04-06T10:40:19;11.10;52.70
78886;DHT22;68269;52.514;5.722;2023-04-06T10:42:49;11.00;52.60
78886;DHT22;68269;52.514;5.722;2023-04-06T10:45:22;11.00;52.70
78886;DHT22;68269;52.514;5.722;2023-04-06T10:47:55;11.00;52.70
78886;DHT22;68269;52.514;5.722;2023-04-06T10:50:24;11.10;52.80
78886;DHT22;68269;52.514;5.722;2023-04-06T10:53:00;11.10;52.80
78886;DHT22;68269;52.514;5.722;2023-04-06T10:55:31;11.00;52.80
78886;DHT22;68269;52.514;5.722;2023-04-06T10:58:00;11.00;52.90
78886;DHT22;68269;52.514;5.722;2023-04-06T11:00:29;11.00;52.90
78886;DHT22;68269;52.514;5.722;2023-04-06T11:03:02;11.00;52.90
78886;DHT22;68269;52.514;5.722;2023-04-06T11:05:31;11.00;53.00
78886;DHT22;68269;52.514;5.722;2023-04-06T11:08:00;10.90;53.10
78886;DHT22;68269;52.514;5.722;2023-04-06T11:10:30;10.90;53.10
78886;DHT22;68269;52.514;5.722;2023-04-06T11:12:59;10.90;53.20
78886;DHT22;68269;52.514;5.722;2023-04-06T11:15:34;10.80;53.30
78886;DHT22;68269;52.514;5.722;2023-04-06T11:18:06;10.80;53.30
78886;DHT22;68269;52.514;5.722;2023-04-06T11:20:37;10.80;53.40
78886;DHT22;68269;52.514;5.722;2023-04-06T11:23:06;10.80;53.40
78886;DHT22;68269;52.514;5.722;2023-04-06T11:25:36;10.90;53.50
78886;DHT22;68269;52.514;5.722;2023-04-06T11:28:05;10.80;53.50
78886;DHT22;68269;52.514;5.722;2023-04-06T11:30:35;10.90;53.50
78886;DHT22;68269;52.514;5.722;2023-04-06T11:33:07;10.80;53.50
78886;DHT22;68269;52.514;5.722;2023-04-06T11:35:37;10.90;53.60
78886;DHT22;68269;52.514;5.722;2023-04-06T11:38:06;10.80;53.50
78886;DHT22;68269;52.514;5.722;2023-04-06T11:40:36;10.80;53.60
78886;DHT22;68269;52.514;5.722;2023-04-06T11:43:05;10.80;53.70
78886;DHT22;68269;52.514;5.722;2023-04-06T11:45:40;10.80;53.70
78886;DHT22;68269;52.514;5.722;2023-04-06T11:48:20;10.80;53.80
78886;DHT22;68269;52.514;5.722;2023-04-06T11:50:55;10.90;53.90
78886;DHT22;68269;52.514;5.722;2023-04-06T11:53:27;10.90;53.80
78886;DHT22;68269;52.514;5.722;2023-04-06T11:55:57;10.90;53.80
78886;DHT22;68269;52.514;5.722;2023-04-06T11:58:26;10.90;53.90
78886;DHT22;68269;52.514;5.722;2023-04-06T12:01:03;10.90;54.00
78886;DHT22;68269;52.514;5.722;2023-04-06T12:03:35;10.90;54.10
78886;DHT22;68269;52.514;5.722;2023-04-06T12:06:05;10.90;54.20
78886;DHT22;68269;52.514;5.722;2023-04-06T12:08:34;10.90;54.20
78886;DHT22;68269;52.514;5.722;2023-04-06T12:11:04;10.90;54.40
78886;DHT22;68269;52.514;5.722;2023-04-06T12:13:33;10.80;54.50
78886;DHT22;68269;52.514;5.722;2023-04-06T12:16:03;10.80;54.60
78886;DHT22;68269;52.514;5.722;2023-04-06T12:18:35;10.70;54.70
78886;DHT22;68269;52.514;5.722;2023-04-06T12:21:04;10.60;54.90
78886;DHT22;68269;52.514;5.722;2023-04-06T12:23:34;10.60;55.10
78886;DHT22;68269;52.514;5.722;2023-04-06T12:26:04;10.50;55.20
78886;DHT22;68269;52.514;5.722;2023-04-06T12:28:33;10.50;55.30
78886;DHT22;68269;52.514;5.722;2023-04-06T12:31:02;10.50;55.30
78886;DHT22;68269;52.514;5.722;2023-04-06T12:33:34;10.50;55.40
78886;DHT22;68269;52.514;5.722;2023-04-06T12:36:04;10.40;55.50
78886;DHT22;68269;52.514;5.722;2023-04-06T12:38:33;10.30;55.60
78886;DHT22;68269;52.514;5.722;2023-04-06T12:41:06;10.20;55.70
78886;DHT22;68269;52.514;5.722;2023-04-06T12:43:35;10.10;55.80
78886;DHT22;68269;52.514;5.722;2023-04-06T12:46:05;10.10;55.90
78886;DHT22;68269;52.514;5.722;2023-04-06T12:48:37;10.10;55.90
78886;DHT22;68269;52.514;5.722;2023-04-06T12:51:07;10.00;56.00
78886;DHT22;68269;52.514;5.722;2023-04-06T12:53:36;10.00;56.10
78886;DHT22;68269;52.514;5.722;2023-04-06T12:56:12;10.00;56.20
78886;DHT22;68269;52.514;5.722;2023-04-06T12:58:41;10.00;56.30
78886;DHT22;68269;52.514;5.722;2023-04-06T13:01:11;10.00;56.40
78886;DHT22;68269;52.514;5.722;2023-04-06T13:03:44;9.90;56.50
78886;DHT22;68269;52.514;5.722;2023-04-06T13:06:14;9.90;56.60
78886;DHT22;68269;52.514;5.722;2023-04-06T13:08:43;9.80;56.70
78886;DHT22;68269;52.514;5.722;2023-04-06T13:11:13;9.80;56.70
78886;DHT22;68269;52.514;5.722;2023-04-06T13:13:43;9.80;56.80
78886;DHT22;68269;52.514;5.722;2023-04-06T13:16:12;9.80;56.90
78886;DHT22;68269;52.514;5.722;2023-04-06T13:18:44;9.70;57.00
78886;DHT22;68269;52.514;5.722;2023-04-06T13:21:14;9.70;57.10
78886;DHT22;68269;52.514;5.722;2023-04-06T13:23:46;9.70;57.10
78886;DHT22;68269;52.514;5.722;2023-04-06T13:26:15;9.70;57.30
78886;DHT22;68269;52.514;5.722;2023-04-06T13:28:44;9.60;57.30
78886;DHT22;68269;52.514;5.722;2023-04-06T13:31:14;9.60;57.50
78886;DHT22;68269;52.514;5.722;2023-04-06T13:33:46;9.60;57.50
78886;DHT22;68269;52.514;5.722;2023-04-06T13:36:15;9.60;57.60
78886;DHT22;68269;52.514;5.722;2023-04-06T13:38:45;9.50;57.60
78886;DHT22;68269;52.514;5.722;2023-04-06T13:41:19;9.50;57.70
78886;DHT22;68269;52.514;5.722;2023-04-06T13:43:49;9.50;57.80
78886;DHT22;68269;52.514;5.722;2023-04-06T13:46:19;9.50;57.80
78886;DHT22;68269;52.514;5.722;2023-04-06T13:48:52;9.40;57.80
78886;DHT22;68269;52.514;5.722;2023-04-06T13:51:22;9.40;57.90
78886;DHT22;68269;52.514;5.722;2023-04-06T13:53:52;9.40;57.90
78886;DHT22;68269;52.514;5.722;2023-04-06T13:56:22;9.40;58.00
78886;DHT22;68269;52.514;5.722;2023-04-06T13:58:53;9.40;58.00
78886;DHT22;68269;52.514;5.722;2023-04-06T14:01:24;9.40;58.00
78886;DHT22;68269;52.514;5.722;2023-04-06T14:03:55;9.40;58.10
78886;DHT22;68269;52.514;5.722;2023-04-06T14:06:25;9.40;58.20
78886;DHT22;68269;52.514;5.722;2023-04-06T14:08:54;9.40;58.30
78886;DHT22;68269;52.514;5.722;2023-04-06T14:11:23;9.40;58.30
78886;DHT22;68269;52.514;5.722;2023-04-06T14:13:52;9.30;58.40
78886;DHT22;68269;52.514;5.722;2023-04-06T14:16:24;9.20;58.50
78886;DHT22;68269;52.514;5.722;2023-04-06T14:18:55;9.30;58.60
78886;DHT22;68269;52.514;5.722;2023-04-06T14:21:25;9.20;58.60
78886;DHT22;68269;52.514;5.722;2023-04-06T14:23:55;9.20;58.60
78886;DHT22;68269;52.514;5.722;2023-04-06T14:26:24;9.20;58.70
78886;DHT22;68269;52.514;5.722;2023-04-06T14:28:53;9.20;58.70
78886;DHT22;68269;52.514;5.722;2023-04-06T14:31:23;9.20;58.80
78886;DHT22;68269;52.514;5.722;2023-04-06T14:33:55;9.20;58.80
78886;DHT22;68269;52.514;5.722;2023-04-06T14:36:24;9.20;58.90
78886;DHT22;68269;52.514;5.722;2023-04-06T14:38:57;9.20;59.00
78886;DHT22;68269;52.514;5.722;2023-04-06T14:41:26;9.10;59.10
78886;DHT22;68269;52.514;5.722;2023-04-06T14:43:55;9.10;59.10
78886;DHT22;68269;52.514;5.722;2023-04-06T14:46:25;9.00;59.10
78886;DHT22;68269;52.514;5.722;2023-04-06T14:48:57;9.00;59.20
78886;DHT22;68269;52.514;5.722;2023-04-06T14:51:27;9.00;59.30
78886;DHT22;68269;52.514;5.722;2023-04-06T14:53:56;9.00;59.30
78886;DHT22;68269;52.514;5.722;2023-04-06T14:56:25;9.00;59.30
78886;DHT22;68269;52.514;5.722;2023-04-06T14:58:57;9.00;59.40
78886;DHT22;68269;52.514;5.722;2023-04-06T15:01:27;9.00;59.50
78886;DHT22;68269;52.514;5.722;2023-04-06T15:03:59;8.90;59.50
78886;DHT22;68269;52.514;5.722;2023-04-06T15:06:29;8.90;59.60
78886;DHT22;68269;52.514;5.722;2023-04-06T15:08:58;8.90;59.70
78886;DHT22;68269;52.514;5.722;2023-04-06T15:11:27;8.90;59.70
78886;DHT22;68269;52.514;5.722;2023-04-06T15:13:57;8.90;59.80
78886;DHT22;68269;52.514;5.722;2023-04-06T15:16:26;8.80;59.80
78886;DHT22;68269;52.514;5.722;2023-04-06T15:19:01;8.80;59.90
78886;DHT22;68269;52.514;5.722;2023-04-06T15:21:30;8.80;60.00
78886;DHT22;68269;52.514;5.722;2023-04-06T15:23:59;8.80;60.00
78886;DHT22;68269;52.514;5.722;2023-04-06T15:26:32;8.80;60.10
78886;DHT22;68269;52.514;5.722;2023-04-06T15:29:01;8.80;60.10
78886;DHT22;68269;52.514;5.722;2023-04-06T15:31:31;8.80;60.10
78886;DHT22;68269;52.514;5.722;2023-04-06T15:34:03;8.80;60.20
78886;DHT22;68269;52.514;5.722;2023-04-06T15:36:34;8.80;60.30
78886;DHT22;68269;52.514;5.722;2023-04-06T15:39:03;8.80;60.30
78886;DHT22;68269;52.514;5.722;2023-04-06T15:41:34;8.80;60.40
78886;DHT22;68269;52.514;5.722;2023-04-06T15:44:04;8.80;60.40
78886;DHT22;68269;52.514;5.722;2023-04-06T15:46:33;8.80;60.50
78886;DHT22;68269;52.514;5.722;2023-04-06T15:49:05;8.80;60.50
78886;DHT22;68269;52.514;5.722;2023-04-06T15:51:35;8.80;60.60
78886;DHT22;68269;52.514;5.722;2023-04-06T15:54:04;8.80;60.60
78886;DHT22;68269;52.514;5.722;2023-04-06T15:56:34;8.80;60.70
78886;DHT22;68269;52.514;5.722;2023-04-06T15:59:03;8.80;60.80
78886;DHT22;68269;52.514;5.722;2023-04-06T16:01:32;8.80;60.80
78886;DHT22;68269;52.514;5.722;2023-04-06T16:04:01;8.80;60.80
78886;DHT22;68269;52.514;5.722;2023-04-06T16:06:34;8.80;60.90
78886;DHT22;68269;52.514;5.722;2023-04-06T16:09:03;8.70;61.00
78886;DHT22;68269;52.514;5.722;2023-04-06T16:11:32;8.70;61.00